Time;durP1;ratioP1;P1;durP2;ratioP2;P2;SDS_P1;SDS_P2;PMS_P1;PMS_P2;Temp;Humidity;BMP_temperature;BMP_pressure;BME280_temperature;BME280_humidity;BME280_pressure;Samples;Min_cycle;Max_cycle;Signal;HPM_P1;HPM_P2
2023/12/07 00:01:13;;;;;;;20.33;10.13;;;;;;;2.47;100.00;101304.56;5052031;28;20607;-63
2023/12/07 00:03:38;;;;;;;23.03;10.20;;;;;;;2.48;100.00;101311.63;5051710;28;20052;-63
2023/12/07 00:06:04;;;;;;;18.87;9.03;;;;;;;2.47;100.00;101311.47;5051969;28;20477;-62
2023/12/07 00:08:29;;;;;;;19.50;8.87;;;;;;;2.48;100.00;101311.63;5051516;28;20037;-63
2023/12/07 00:10:55;;;;;;;21.40;9.13;;;;;;;2.50;100.00;101309.16;5050910;28;20290;-64
2023/12/07 00:13:21;;;;;;;18.23;8.23;;;;;;;2.49;100.00;101305.63;5051964;28;20021;-62
2023/12/07 00:15:46;;;;;;;19.30;8.70;;;;;;;2.50;100.00;101307.44;5051842;28;20160;-62
2023/12/07 00:18:11;;;;;;;19.10;8.43;;;;;;;2.50;100.00;101309.16;5052113;28;20040;-62
2023/12/07 00:20:37;;;;;;;18.10;8.30;;;;;;;2.49;100.00;101308.22;5051983;28;20090;-62
2023/12/07 00:23:02;;;;;;;19.67;8.67;;;;;;;2.51;100.00;101303.16;5052042;28;20131;-63
2023/12/07 00:25:28;;;;;;;16.58;7.97;;;;;;;2.50;100.00;101307.44;5047206;28;20036;-63
2023/12/07 00:27:53;;;;;;;18.40;7.97;;;;;;;2.51;100.00;101311.88;5030802;28;20041;-63
2023/12/07 00:30:18;;;;;;;18.20;7.63;;;;;;;2.51;100.00;101311.88;5030055;28;20483;-62
2023/12/07 00:32:44;;;;;;;17.67;7.87;;;;;;;2.54;100.00;101311.22;5031665;28;20116;-62
2023/12/07 00:35:10;;;;;;;19.80;8.40;;;;;;;2.54;100.00;101313.81;5032051;28;20397;-62
2023/12/07 00:37:36;;;;;;;18.17;7.80;;;;;;;2.56;100.00;101321.00;5031894;28;20284;-63
2023/12/07 00:40:01;;;;;;;17.70;8.37;;;;;;;2.58;100.00;101322.00;5031264;28;20041;-62
2023/12/07 00:42:27;;;;;;;19.03;8.00;;;;;;;2.59;100.00;101318.63;5031666;28;20691;-63
2023/12/07 00:44:53;;;;;;;21.15;8.93;;;;;;;2.59;100.00;101315.09;5031325;28;20056;-62
2023/12/07 00:47:18;;;;;;;20.53;8.60;;;;;;;2.59;100.00;101317.72;5031562;28;20481;-62
2023/12/07 00:49:43;;;;;;;17.23;7.73;;;;;;;2.60;100.00;101322.16;5054756;28;20468;-63
2023/12/07 00:52:09;;;;;;;16.77;7.80;;;;;;;2.61;100.00;101323.97;5071196;28;20089;-63
2023/12/07 00:54:34;;;;;;;19.17;8.13;;;;;;;2.60;100.00;101319.53;5070922;28;20411;-62
2023/12/07 00:57:00;;;;;;;18.67;8.87;;;;;;;2.60;100.00;101325.66;5062674;28;20049;-63
2023/12/07 00:59:25;;;;;;;20.23;8.87;;;;;;;2.60;100.00;101327.38;5041936;28;20037;-63
2023/12/07 01:01:50;;;;;;;20.23;7.70;;;;;;;2.61;100.00;101329.19;5050684;28;20033;-63
2023/12/07 01:04:16;;;;;;;22.03;9.50;;;;;;;2.63;100.00;101338.03;5050616;28;20033;-63
2023/12/07 01:06:42;;;;;;;19.20;8.60;;;;;;;2.65;100.00;101341.69;5050875;28;20068;-63
2023/12/07 01:09:08;;;;;;;20.03;8.47;;;;;;;2.67;100.00;101354.81;5050201;28;20672;-63
2023/12/07 01:11:34;;;;;;;18.98;8.38;;;;;;;2.67;100.00;101357.44;5050779;28;20044;-65
2023/12/07 01:13:59;;;;;;;18.57;7.77;;;;;;;2.65;100.00;101359.03;5050501;28;20124;-63
2023/12/07 01:16:24;;;;;;;17.92;8.23;;;;;;;2.64;100.00;101363.31;5050458;28;20056;-63
2023/12/07 01:18:50;;;;;;;27.93;9.27;;;;;;;2.63;100.00;101356.28;5050176;28;20460;-62
2023/12/07 01:21:15;;;;;;;17.57;8.63;;;;;;;2.63;100.00;101364.09;5050195;28;20112;-64
2023/12/07 01:23:40;;;;;;;17.10;7.87;;;;;;;2.63;100.00;101365.81;5050477;28;20119;-64
2023/12/07 01:26:06;;;;;;;20.20;8.90;;;;;;;2.60;100.00;101367.41;5050302;28;20116;-62
2023/12/07 01:28:32;;;;;;;17.80;8.27;;;;;;;2.62;100.00;101364.88;5049965;28;20087;-63
2023/12/07 01:30:57;;;;;;;17.90;7.33;;;;;;;2.65;100.00;101374.69;5050625;28;20033;-62
2023/12/07 01:33:23;;;;;;;17.67;7.65;;;;;;;2.65;100.00;101380.81;5050362;28;20115;-62
2023/12/07 01:35:48;;;;;;;18.37;8.07;;;;;;;2.63;100.00;101381.44;5050175;28;20041;-62
2023/12/07 01:38:13;;;;;;;19.00;8.63;;;;;;;2.65;100.00;101386.03;5049879;28;20104;-63
2023/12/07 01:40:39;;;;;;;18.20;8.43;;;;;;;2.64;100.00;101389.41;5050046;28;20119;-63
2023/12/07 01:43:04;;;;;;;18.87;8.77;;;;;;;2.63;100.00;101384.97;5050092;28;20048;-62
2023/12/07 01:45:29;;;;;;;17.35;8.00;;;;;;;2.63;100.00;101395.41;5050125;28;20175;-63
2023/12/07 01:47:56;;;;;;;18.10;8.60;;;;;;;2.64;100.00;101386.81;5050219;28;20049;-63
2023/12/07 01:50:23;;;;;;;18.38;7.55;;;;;;;2.61;100.00;101386.56;5066432;28;20477;-63
2023/12/07 01:52:54;;;;;;;19.07;8.50;;;;;;;2.60;100.00;101387.34;5070019;28;20055;-63
2023/12/07 01:55:21;;;;;;;18.42;8.05;;;;;;;2.59;100.00;101394.25;5070184;28;20044;-62
2023/12/07 01:57:46;;;;;;;19.83;8.80;;;;;;;2.60;100.00;101387.34;5070059;28;20040;-63
2023/12/07 02:00:15;;;;;;;20.53;8.20;;;;;;;2.60;100.00;101393.47;5069510;28;20400;-62
2023/12/07 02:02:41;;;;;;;17.98;8.70;;;;;;;2.61;100.00;101394.38;5069989;28;20040;-61
2023/12/07 02:05:07;;;;;;;19.20;8.40;;;;;;;2.62;100.00;101390.97;5070062;28;20393;-61
2023/12/07 02:07:34;;;;;;;19.97;8.87;;;;;;;2.64;100.00;101396.31;5070234;28;20055;-63
2023/12/07 02:09:59;;;;;;;19.23;8.90;;;;;;;2.65;100.00;101395.53;5069514;28;20554;-62
2023/12/07 02:12:29;;;;;;;17.93;8.57;;;;;;;2.64;100.00;101394.63;5069803;28;20032;-62
2023/12/07 02:14:55;;;;;;;20.20;8.75;;;;;;;2.63;100.00;101390.19;5069989;28;20119;-63
2023/12/07 02:17:34;;;;;;;22.85;9.40;;;;;;;2.65;100.00;101392.94;5037615;28;20052;-62
2023/12/07 02:20:10;;;;;;;16.60;7.60;;;;;;;2.65;100.00;101390.31;5028891;28;20072;-63
2023/12/07 02:22:42;;;;;;;19.43;8.37;;;;;;;2.64;100.00;101392.00;5029815;28;20080;-62
2023/12/07 02:25:10;;;;;;;19.13;8.65;;;;;;;2.61;100.00;101394.38;5029705;28;20049;-62
2023/12/07 02:27:38;;;;;;;16.88;7.90;;;;;;;2.60;100.00;101396.06;5029849;28;20034;-62
2023/12/07 02:30:04;;;;;;;15.50;7.38;;;;;;;2.60;100.00;101397.78;5029495;28;20401;-62
2023/12/07 02:32:30;;;;;;;18.45;7.78;;;;;;;2.57;100.00;101400.09;5029823;28;20512;-62
2023/12/07 02:34:55;;;;;;;17.93;9.13;;;;;;;2.56;100.00;101404.44;5030038;28;20041;-63
2023/12/07 02:37:22;;;;;;;20.17;8.63;;;;;;;2.54;100.00;101406.00;5029831;28;20037;-62
2023/12/07 02:39:49;;;;;;;20.90;9.20;;;;;;;2.56;100.00;101403.53;5029317;28;20033;-62
2023/12/07 02:42:15;;;;;;;17.33;8.13;;;;;;;2.56;100.00;101407.03;5029958;28;20040;-62
2023/12/07 02:44:41;;;;;;;22.35;9.60;;;;;;;2.55;100.00;101406.91;5029964;28;20041;-62
2023/12/07 02:47:06;;;;;;;16.30;8.63;;;;;;;2.55;100.00;101407.81;5030296;28;20112;-62
2023/12/07 02:49:32;;;;;;;18.17;8.73;;;;;;;2.53;100.00;101411.97;5050043;28;20158;-62
2023/12/07 02:51:57;;;;;;;18.23;8.80;;;;;;;2.55;100.00;101406.91;5073704;28;20040;-62
2023/12/07 02:54:22;;;;;;;18.20;7.88;;;;;;;2.59;100.00;101420.31;5072523;28;20024;-62
2023/12/07 02:56:48;;;;;;;20.50;8.80;;;;;;;2.62;100.00;101424.88;5071275;28;20189;-62
2023/12/07 02:59:13;;;;;;;18.30;8.77;;;;;;;2.61;100.00;101425.69;5072909;28;20048;-62
2023/12/07 03:01:42;;;;;;;19.35;9.88;;;;;;;2.59;100.00;101420.31;5073322;28;20035;-62
2023/12/07 03:04:07;;;;;;;22.80;9.23;;;;;;;2.61;100.00;101421.34;5030126;28;20037;-62
2023/12/07 03:06:33;;;;;;;16.40;7.68;;;;;;;2.63;100.00;101421.47;5032831;28;20042;-62
2023/12/07 03:08:58;;;;;;;20.63;8.87;;;;;;;2.64;100.00;101425.91;5032559;28;20120;-63
2023/12/07 03:11:24;;;;;;;16.83;8.70;;;;;;;2.62;100.00;101417.03;5032384;28;20136;-64
2023/12/07 03:13:49;;;;;;;18.13;8.77;;;;;;;2.63;100.00;101426.69;5043112;28;20056;-63
2023/12/07 03:16:14;;;;;;;16.63;8.60;;;;;;;2.62;100.00;101427.47;5052605;28;20055;-62
2023/12/07 03:18:40;;;;;;;22.53;9.63;;;;;;;2.64;100.00;101430.22;5035891;28;20029;-62
2023/12/07 03:21:06;;;;;;;20.73;9.80;;;;;;;2.64;100.00;101432.81;5032646;28;20112;-62
2023/12/07 03:23:32;;;;;;;20.50;9.00;;;;;;;2.64;100.00;101431.13;5030797;28;20168;-62
2023/12/07 03:25:57;;;;;;;19.40;8.17;;;;;;;2.65;100.00;101430.34;5032836;28;20033;-63
2023/12/07 03:28:22;;;;;;;22.83;9.37;;;;;;;2.68;100.00;101437.50;5032135;28;20049;-62
2023/12/07 03:30:48;;;;;;;17.53;8.80;;;;;;;2.67;100.00;101436.59;5032796;28;20124;-62
2023/12/07 03:33:13;;;;;;;20.10;9.18;;;;;;;2.64;100.00;101441.56;5032887;28;20160;-62
2023/12/07 03:35:38;;;;;;;20.60;9.10;;;;;;;2.65;100.00;101439.88;5032853;28;20531;-63
2023/12/07 03:38:04;;;;;;;19.13;8.43;;;;;;;2.66;100.00;101439.09;5033145;28;20037;-62
2023/12/07 03:40:29;;;;;;;17.83;8.70;;;;;;;2.64;100.00;101444.19;5032182;28;20133;-62
2023/12/07 03:42:54;;;;;;;20.63;9.47;;;;;;;2.63;100.00;101450.16;5032951;28;20133;-63
2023/12/07 03:45:20;;;;;;;21.10;8.95;;;;;;;2.62;100.00;101448.34;5032828;28;20041;-63
2023/12/07 03:47:45;;;;;;;19.33;8.53;;;;;;;2.62;100.00;101445.72;5032117;28;20112;-63
2023/12/07 03:50:11;;;;;;;20.10;8.37;;;;;;;2.64;100.00;101449.38;5062125;28;20032;-63
2023/12/07 03:52:36;;;;;;;19.43;8.80;;;;;;;2.65;100.00;101448.63;5072142;28;20512;-63
2023/12/07 03:55:01;;;;;;;20.37;8.90;;;;;;;2.65;100.00;101451.22;5072329;28;20503;-63
2023/12/07 03:57:28;;;;;;;19.73;8.93;;;;;;;2.68;100.00;101455.75;5072263;28;20086;-63
2023/12/07 03:59:53;;;;;;;21.50;8.87;;;;;;;2.69;100.00;101457.59;5055493;28;20042;-62
2023/12/07 04:02:19;;;;;;;20.25;9.30;;;;;;;2.66;100.00;101447.84;5050982;28;20033;-61
2023/12/07 04:04:44;;;;;;;21.53;9.30;;;;;;;2.65;100.00;101439.88;5051554;28;20064;-63
2023/12/07 04:07:09;;;;;;;19.07;8.60;;;;;;;2.65;100.00;101446.00;5041024;28;20137;-65
2023/12/07 04:09:35;;;;;;;18.57;8.30;;;;;;;2.64;100.00;101449.38;5031260;28;20626;-62
2023/12/07 04:12:00;;;;;;;20.07;9.83;;;;;;;2.63;100.00;101441.44;5031199;28;20117;-62
2023/12/07 04:14:26;;;;;;;20.13;9.07;;;;;;;2.63;100.00;101452.78;5030883;28;21016;-63
2023/12/07 04:16:51;;;;;;;20.20;8.87;;;;;;;2.66;100.00;101459.97;5031887;28;20487;-62
2023/12/07 04:19:16;;;;;;;21.00;9.00;;;;;;;2.67;100.00;101453.94;5031321;28;20053;-61
2023/12/07 04:21:42;;;;;;;21.50;8.67;;;;;;;2.67;100.00;101462.66;5031545;28;20613;-62
2023/12/07 04:24:07;;;;;;;26.47;10.53;;;;;;;2.69;100.00;101457.59;5031675;28;20108;-61
2023/12/07 04:26:32;;;;;;;21.83;9.67;;;;;;;2.69;100.00;101462.81;5031901;28;20369;-63
2023/12/07 04:28:58;;;;;;;20.77;8.77;;;;;;;2.71;100.00;101466.47;5031154;28;20049;-62
2023/12/07 04:31:23;;;;;;;22.67;9.33;;;;;;;2.72;100.00;101469.19;5031499;28;20052;-62
2023/12/07 04:33:48;;;;;;;21.33;9.47;;;;;;;2.72;100.00;101482.22;5031679;28;20061;-62
2023/12/07 04:36:14;;;;;;;21.67;9.33;;;;;;;2.75;100.00;101478.97;5031420;28;20120;-62
2023/12/07 04:38:40;;;;;;;20.60;9.10;;;;;;;2.75;100.00;101481.59;5031184;28;20366;-62
2023/12/07 04:41:05;;;;;;;22.80;9.70;;;;;;;2.73;100.00;101483.13;5031461;28;20038;-61
2023/12/07 04:43:30;;;;;;;20.52;9.65;;;;;;;2.73;100.00;101483.13;5031333;28;20037;-63
2023/12/07 04:45:56;;;;;;;22.90;9.47;;;;;;;2.72;100.00;101503.09;5031402;28;20052;-62
2023/12/07 04:48:21;;;;;;;21.23;8.73;;;;;;;2.72;100.00;101504.78;5031784;28;20560;-62
2023/12/07 04:50:46;;;;;;;19.87;8.93;;;;;;;2.70;100.00;101494.25;5070785;28;20127;-62
2023/12/07 04:53:12;;;;;;;22.00;10.37;;;;;;;2.73;100.00;101496.19;5071236;28;20748;-61
2023/12/07 04:55:37;;;;;;;21.73;8.93;;;;;;;2.75;100.00;101494.63;5070908;28;20107;-62
2023/12/07 04:58:02;;;;;;;23.87;9.70;;;;;;;2.75;100.00;101487.72;5071152;28;20719;-62
2023/12/07 05:00:28;;;;;;;21.40;9.47;;;;;;;2.75;100.00;101492.94;5070416;28;20086;-61
2023/12/07 05:02:53;;;;;;;20.60;9.33;;;;;;;2.76;100.00;101502.59;5070701;28;20100;-62
2023/12/07 05:05:19;;;;;;;21.67;9.50;;;;;;;2.74;100.00;101509.38;5070796;28;20036;-62
2023/12/07 05:07:44;;;;;;;24.00;9.93;;;;;;;2.74;100.00;101503.22;5070670;28;20036;-62
2023/12/07 05:10:10;;;;;;;24.30;10.43;;;;;;;2.74;100.00;101504.16;5070132;28;20281;-62
2023/12/07 05:12:35;;;;;;;24.30;10.77;;;;;;;2.74;100.00;101498.94;5070276;28;20365;-62
2023/12/07 05:15:02;;;;;;;22.07;9.10;;;;;;;2.76;100.00;101502.59;5070759;28;20151;-62
2023/12/07 05:17:28;;;;;;;22.35;9.52;;;;;;;2.75;100.00;101505.06;5070645;28;20078;-62
2023/12/07 05:19:53;;;;;;;18.67;8.77;;;;;;;2.77;100.00;101503.47;5070001;28;20072;-62
2023/12/07 05:22:19;;;;;;;23.52;9.77;;;;;;;2.75;100.00;101505.97;5070393;28;20523;-62
2023/12/07 05:24:44;;;;;;;18.27;8.33;;;;;;;2.75;100.00;101500.75;5070408;28;20037;-63
2023/12/07 05:27:09;;;;;;;22.77;10.27;;;;;;;2.76;100.00;101499.06;5070529;28;20578;-62
2023/12/07 05:29:35;;;;;;;21.87;9.23;;;;;;;2.74;100.00;101511.06;5069857;28;20036;-62
2023/12/07 05:32:00;;;;;;;23.27;9.77;;;;;;;2.76;100.00;101513.03;5054008;28;20187;-63
2023/12/07 05:34:26;;;;;;;20.93;9.40;;;;;;;2.75;100.00;101511.19;5050075;28;20025;-63
2023/12/07 05:36:51;;;;;;;24.77;10.23;;;;;;;2.78;100.00;101511.44;5050392;28;20131;-63
2023/12/07 05:39:17;;;;;;;22.47;10.03;;;;;;;2.76;100.00;101499.97;5049871;28;20052;-62
2023/12/07 05:41:43;;;;;;;26.13;10.25;;;;;;;2.76;100.00;101515.63;5050355;28;20090;-62
2023/12/07 05:44:08;;;;;;;21.05;9.60;;;;;;;2.74;100.00;101504.16;5050172;28;20064;-63
2023/12/07 05:46:35;;;;;;;24.90;9.90;;;;;;;2.74;100.00;101511.97;5050201;28;20124;-62
2023/12/07 05:49:00;;;;;;;23.13;10.05;;;;;;;2.75;100.00;101510.28;5055371;28;20039;-63
2023/12/07 05:51:26;;;;;;;23.03;10.47;;;;;;;2.76;100.00;101507.81;5070334;28;20488;-64
2023/12/07 05:53:52;;;;;;;21.73;9.50;;;;;;;2.76;100.00;101504.28;5070329;28;20025;-61
2023/12/07 05:56:20;;;;;;;26.08;10.57;;;;;;;2.77;100.00;101514.81;5070166;28;20044;-61
2023/12/07 05:58:46;;;;;;;25.23;10.18;;;;;;;2.77;100.00;101520.03;5069735;28;20123;-61
2023/12/07 06:01:12;;;;;;;23.63;10.57;;;;;;;2.77;100.00;101517.44;5070542;28;20115;-61
2023/12/07 06:03:37;;;;;;;25.00;11.45;;;;;;;2.78;100.00;101526.19;5069911;28;20124;-61
2023/12/07 06:06:03;;;;;;;22.53;9.53;;;;;;;2.77;100.00;101530.47;5070175;28;20136;-61
2023/12/07 06:08:29;;;;;;;26.25;11.25;;;;;;;2.77;100.00;101538.31;5069532;28;20047;-61
2023/12/07 06:10:54;;;;;;;22.30;10.47;;;;;;;2.78;100.00;101529.69;5069946;28;20032;-62
2023/12/07 06:13:19;;;;;;;27.67;11.40;;;;;;;2.80;100.00;101535.06;5069795;28;20111;-62
2023/12/07 06:15:45;;;;;;;25.33;12.43;;;;;;;2.82;100.00;101534.38;5069652;28;20119;-62
2023/12/07 06:18:10;;;;;;;25.03;10.37;;;;;;;2.84;100.00;101537.13;5069612;28;20037;-62
2023/12/07 06:20:36;;;;;;;30.67;11.63;;;;;;;2.85;100.00;101536.34;5069092;28;20036;-62
2023/12/07 06:23:02;;;;;;;26.37;11.27;;;;;;;2.84;100.00;101540.66;5069973;28;20283;-60
2023/12/07 06:25:27;;;;;;;29.00;12.10;;;;;;;2.85;100.00;101541.56;5071787;28;20052;-61
2023/12/07 06:27:53;;;;;;;27.43;11.47;;;;;;;2.85;100.00;101539.88;5073976;28;20082;-61
2023/12/07 06:30:18;;;;;;;26.90;11.77;;;;;;;2.86;100.00;101546.00;5074421;28;20041;-62
2023/12/07 06:32:44;;;;;;;22.47;11.07;;;;;;;2.84;100.00;101545.88;5074477;28;20040;-62
2023/12/07 06:35:12;;;;;;;24.80;10.10;;;;;;;2.86;100.00;101556.44;5063201;28;20606;-61
2023/12/07 06:37:37;;;;;;;23.02;10.23;;;;;;;2.82;100.00;101557.84;5071310;28;20051;-61
2023/12/07 06:40:04;;;;;;;27.87;11.83;;;;;;;2.83;100.00;101559.69;5052906;28;20041;-62
2023/12/07 06:42:29;;;;;;;25.13;10.10;;;;;;;2.84;100.00;101565.81;5060498;28;20028;-61
2023/12/07 06:44:55;;;;;;;22.23;9.60;;;;;;;2.84;100.00;101571.97;5073275;28;20055;-60
2023/12/07 06:47:20;;;;;;;25.20;10.47;;;;;;;2.84;100.00;101576.25;5073549;28;20032;-60
2023/12/07 06:49:46;;;;;;;24.57;10.23;;;;;;;2.85;100.00;101572.88;5060449;28;20400;-64
2023/12/07 06:52:12;;;;;;;24.88;10.73;;;;;;;2.85;100.00;101576.41;5069432;28;20404;-63
2023/12/07 06:54:40;;;;;;;23.10;10.30;;;;;;;2.84;100.00;101577.19;5072483;28;20032;-63
2023/12/07 06:57:09;;;;;;;22.43;10.43;;;;;;;2.83;100.00;101571.81;5072886;28;20086;-63
2023/12/07 06:59:34;;;;;;;25.55;11.40;;;;;;;2.83;100.00;101572.75;5072410;28;20028;-63
2023/12/07 07:02:01;;;;;;;24.70;10.67;;;;;;;2.82;100.00;101570.91;5072923;28;20592;-63
2023/12/07 07:04:26;;;;;;;26.92;11.02;;;;;;;2.82;100.00;101583.94;5072596;28;20043;-63
2023/12/07 07:06:51;;;;;;;24.40;10.50;;;;;;;2.81;100.00;101584.72;5072784;28;20115;-64
2023/12/07 07:09:17;;;;;;;24.87;10.67;;;;;;;2.83;100.00;101585.78;5055680;28;20086;-63
2023/12/07 07:11:47;;;;;;;26.70;11.03;;;;;;;3.03;100.00;101577.94;5053358;28;20291;-63
2023/12/07 07:14:13;;;;;;;26.98;11.63;;;;;;;3.82;100.00;101581.88;5053217;28;20041;-63
2023/12/07 07:16:38;;;;;;;25.63;10.97;;;;;;;3.94;100.00;101579.34;5053470;28;20079;-63
2023/12/07 07:19:04;;;;;;;26.30;11.00;;;;;;;3.82;100.00;101579.25;5052830;28;20119;-63
2023/12/07 07:21:29;;;;;;;25.33;10.80;;;;;;;3.70;100.00;101577.38;5052606;28;20084;-61
2023/12/07 07:23:54;;;;;;;28.67;11.05;;;;;;;3.62;99.92;101584.56;5052219;28;20420;-61
2023/12/07 07:26:20;;;;;;;25.30;10.63;;;;;;;3.54;99.92;101585.66;5052038;28;20040;-61
2023/12/07 07:28:45;;;;;;;22.90;10.80;;;;;;;3.42;100.00;101590.78;5051543;28;20028;-62
2023/12/07 07:31:10;;;;;;;22.53;9.97;;;;;;;3.35;100.00;101587.53;5052678;28;20041;-61
2023/12/07 07:33:36;;;;;;;26.03;10.77;;;;;;;3.27;100.00;101586.88;5052585;28;20028;-61
2023/12/07 07:36:01;;;;;;;24.85;10.30;;;;;;;3.24;100.00;101594.47;5051407;28;20041;-63
2023/12/07 07:38:27;;;;;;;26.77;11.60;;;;;;;3.18;100.00;101593.03;5051879;28;20068;-61
2023/12/07 07:40:52;;;;;;;25.97;11.13;;;;;;;3.11;100.00;101591.63;5052687;28;20049;-61
2023/12/07 07:43:17;;;;;;;28.07;10.93;;;;;;;3.10;100.00;101596.72;5050683;28;20033;-63
2023/12/07 07:45:43;;;;;;;24.97;10.50;;;;;;;3.10;100.00;101596.72;5050469;28;20048;-63
2023/12/07 07:48:08;;;;;;;24.67;9.73;;;;;;;3.09;99.92;101597.50;5050651;28;20363;-62
2023/12/07 07:50:36;;;;;;;23.97;10.67;;;;;;;3.06;99.75;101592.91;5068821;28;20128;-62
2023/12/07 07:53:02;;;;;;;24.67;11.00;;;;;;;3.05;99.69;101596.34;5070522;28;20040;-61
2023/12/07 07:55:27;;;;;;;24.38;10.30;;;;;;;3.07;99.85;101596.44;5070354;28;20047;-62
2023/12/07 07:57:53;;;;;;;30.07;11.87;;;;;;;3.04;99.86;101590.22;5071825;28;20041;-62
2023/12/07 08:00:19;;;;;;;27.17;12.45;;;;;;;3.05;99.51;101588.50;5071486;28;20080;-61
2023/12/07 08:02:44;;;;;;;24.97;9.73;;;;;;;3.06;99.43;101592.03;5071900;28;20185;-61
2023/12/07 08:05:11;;;;;;;27.53;11.50;;;;;;;3.07;99.50;101586.00;5071922;28;20119;-62
2023/12/07 08:07:36;;;;;;;29.63;12.27;;;;;;;3.08;99.26;101596.59;5072039;28;20033;-61
2023/12/07 08:10:03;;;;;;;27.87;12.07;;;;;;;3.08;99.19;101600.88;5071451;28;20127;-61
2023/12/07 08:12:28;;;;;;;22.80;10.75;;;;;;;3.09;99.10;101607.94;5071780;28;20043;-60
2023/12/07 08:14:54;;;;;;;29.93;12.00;;;;;;;3.12;98.95;101616.00;5072214;28;20040;-62
2023/12/07 08:17:19;;;;;;;26.67;11.60;;;;;;;3.13;99.15;101615.25;5072294;28;20123;-61
2023/12/07 08:19:44;;;;;;;25.52;10.88;;;;;;;3.16;98.80;101618.13;5071570;28;20039;-62
2023/12/07 08:22:10;;;;;;;27.43;11.27;;;;;;;3.17;99.24;101617.31;5071939;28;20033;-62
2023/12/07 08:24:38;;;;;;;25.70;11.17;;;;;;;3.14;98.74;101618.00;5071819;28;20496;-63
2023/12/07 08:27:03;;;;;;;27.13;11.63;;;;;;;3.14;99.15;101611.84;5072116;28;20051;-62
2023/12/07 08:29:29;;;;;;;28.87;12.03;;;;;;;3.16;99.30;101619.00;5071300;28;20115;-61
2023/12/07 08:31:54;;;;;;;27.53;11.50;;;;;;;3.20;99.14;101622.81;5072283;28;20029;-61
2023/12/07 08:34:20;;;;;;;29.77;12.15;;;;;;;3.22;98.63;101619.53;5071973;28;20435;-62
2023/12/07 08:36:45;;;;;;;24.40;11.80;;;;;;;3.25;98.66;101621.50;5071856;28;20566;-63
2023/12/07 08:39:10;;;;;;;29.20;11.33;;;;;;;3.28;98.75;101622.66;5071049;28;20507;-62
2023/12/07 08:41:36;;;;;;;27.40;11.50;;;;;;;3.32;98.04;101627.34;5071575;28;20094;-63
2023/12/07 08:44:02;;;;;;;24.13;10.52;;;;;;;3.35;97.81;101629.31;5071460;28;20076;-61
2023/12/07 08:46:27;;;;;;;29.93;11.60;;;;;;;3.34;98.00;101632.72;5071459;28;20040;-60
2023/12/07 08:48:53;;;;;;;28.73;11.65;;;;;;;3.33;97.74;101636.09;5065206;28;20037;-61
2023/12/07 08:51:19;;;;;;;24.13;10.43;;;;;;;3.34;98.27;101631.00;5051520;28;20029;-62
2023/12/07 08:53:45;;;;;;;27.77;10.80;;;;;;;3.33;97.69;101637.00;5051296;28;20021;-62
2023/12/07 08:56:12;;;;;;;27.43;10.93;;;;;;;3.33;98.00;101630.88;5051435;28;20481;-63
2023/12/07 08:58:38;;;;;;;28.15;11.25;;;;;;;3.35;97.82;101629.31;5050487;28;20094;-61
2023/12/07 09:01:03;;;;;;;27.23;12.10;;;;;;;3.34;97.32;101633.63;5051222;28;20040;-61
2023/12/07 09:03:31;;;;;;;29.37;11.33;;;;;;;3.38;97.29;101629.56;5050713;28;20047;-61
2023/12/07 09:05:57;;;;;;;27.27;10.17;;;;;;;3.37;96.93;101628.66;5051062;28;20294;-61
2023/12/07 09:08:22;;;;;;;26.92;11.45;;;;;;;3.37;97.06;101636.47;5050617;28;21004;-62
2023/12/07 09:10:50;;;;;;;31.57;12.40;;;;;;;3.38;96.57;101640.91;5050878;28;20041;-61
2023/12/07 09:13:15;;;;;;;33.30;12.82;;;;;;;3.40;96.51;101633.22;5050670;28;20053;-61
2023/12/07 09:15:41;;;;;;;27.23;11.00;;;;;;;3.40;96.99;101644.56;5050660;28;20594;-62
2023/12/07 09:18:06;;;;;;;33.00;12.67;;;;;;;3.43;96.55;101637.00;5050821;28;20043;-61
2023/12/07 09:20:31;;;;;;;27.67;11.83;;;;;;;3.44;96.51;101636.22;5048931;28;20523;-61
2023/12/07 09:22:57;;;;;;;31.80;11.97;;;;;;;3.46;96.58;101644.16;5050566;28;20120;-61
2023/12/07 09:25:22;;;;;;;27.70;11.10;;;;;;;3.48;96.75;101646.13;5050350;28;20048;-61
2023/12/07 09:27:48;;;;;;;28.57;11.17;;;;;;;3.52;96.73;101643.75;5050591;28;20292;-61
2023/12/07 09:30:13;;;;;;;31.17;11.20;;;;;;;3.52;96.49;101649.91;5049544;28;20181;-61
2023/12/07 09:32:39;;;;;;;33.57;12.13;;;;;;;3.52;96.31;101649.91;5050520;28;20193;-61
2023/12/07 09:35:06;;;;;;;35.13;12.75;;;;;;;3.53;96.37;101643.91;5047638;28;20063;-62
2023/12/07 09:37:32;;;;;;;35.75;13.18;;;;;;;3.52;96.26;101648.97;5050807;28;20036;-61
2023/12/07 09:39:58;;;;;;;37.30;12.63;;;;;;;3.52;96.52;101654.19;5049528;28;20036;-59
2023/12/07 09:42:23;;;;;;;33.03;12.67;;;;;;;3.49;96.48;101657.50;5050470;28;20043;-61
2023/12/07 09:44:49;;;;;;;31.53;11.97;;;;;;;3.47;96.43;101661.66;5050536;28;20068;-63
2023/12/07 09:47:14;;;;;;;30.70;11.05;;;;;;;3.45;96.13;101661.53;5050877;28;20409;-62
2023/12/07 09:49:40;;;;;;;32.77;12.53;;;;;;;3.45;96.76;101660.63;5061322;28;20037;-61
2023/12/07 09:52:07;;;;;;;31.63;11.60;;;;;;;3.49;96.87;101665.31;5070670;28;20404;-60
2023/12/07 09:54:35;;;;;;;33.08;12.52;;;;;;;3.50;96.67;101661.94;5070523;28;20044;-60
2023/12/07 09:57:00;;;;;;;32.47;11.57;;;;;;;3.53;96.44;101664.78;5071232;28;20056;-61
2023/12/07 09:59:26;;;;;;;30.60;12.07;;;;;;;3.55;96.06;101660.63;5069605;28;20126;-61
2023/12/07 10:01:51;;;;;;;34.42;12.50;;;;;;;3.56;95.95;101666.72;5070651;28;20587;-61
2023/12/07 10:04:25;;;;;;;31.90;10.60;;;;;;;3.59;96.18;101657.47;5070243;28;20674;-61
2023/12/07 10:06:52;;;;;;;25.63;10.18;;;;;;;3.65;95.62;101663.16;5070488;28;20064;-60
2023/12/07 10:09:18;;;;;;;33.83;11.70;;;;;;;3.67;95.60;101656.38;5069830;28;20101;-61
2023/12/07 10:11:44;;;;;;;27.40;11.50;;;;;;;3.71;95.36;101650.63;5070220;28;20102;-62
2023/12/07 10:14:10;;;;;;;29.88;12.32;;;;;;;3.77;95.33;101645.91;5070341;28;20471;-62
2023/12/07 10:16:36;;;;;;;36.23;13.00;;;;;;;3.83;95.43;101645.50;5070343;28;20072;-61
2023/12/07 10:19:21;;;;;;;33.47;12.52;;;;;;;3.92;94.96;101639.31;5069770;28;20094;-61
2023/12/07 10:21:47;;;;;;;30.15;11.68;;;;;;;4.01;94.79;101635.63;5070272;28;20037;-60
2023/12/07 10:24:12;;;;;;;29.67;10.93;;;;;;;4.05;94.45;101637.69;5070620;28;20041;-61
2023/12/07 10:26:38;;;;;;;33.30;12.43;;;;;;;4.11;94.11;101644.31;5070188;28;20044;-60
2023/12/07 10:29:07;;;;;;;30.57;12.53;;;;;;;4.13;94.00;101645.38;5069635;28;20051;-61
2023/12/07 10:31:33;;;;;;;30.40;12.02;;;;;;;4.12;93.59;101646.16;5070151;28;20036;-61
2023/12/07 10:33:59;;;;;;;29.15;12.40;;;;;;;4.12;93.73;101642.63;5070115;28;20458;-60
2023/12/07 10:36:25;;;;;;;31.95;12.73;;;;;;;4.13;93.73;101642.75;5070206;28;20028;-61
2023/12/07 10:38:51;;;;;;;33.37;12.23;;;;;;;4.15;94.00;101632.41;5069399;28;20035;-61
2023/12/07 10:41:18;;;;;;;29.87;11.50;;;;;;;4.17;93.98;101636.06;5069983;28;20085;-60
2023/12/07 10:43:47;;;;;;;34.30;12.05;;;;;;;4.19;93.96;101643.22;5069728;28;20043;-60
2023/12/07 10:46:16;;;;;;;30.17;11.57;;;;;;;4.18;93.82;101641.44;5069577;28;20080;-60
2023/12/07 10:48:44;;;;;;;34.45;12.10;;;;;;;4.14;93.90;101652.44;5065804;28;20039;-59
2023/12/07 10:51:17;;;;;;;28.73;10.85;;;;;;;4.11;94.17;101651.25;5049485;28;20114;-61
2023/12/07 10:53:44;;;;;;;29.20;12.63;;;;;;;4.11;94.09;101649.56;5049532;28;20033;-60
2023/12/07 10:56:12;;;;;;;27.20;10.52;;;;;;;4.14;93.93;101647.22;5049445;28;20579;-60
2023/12/07 10:58:40;;;;;;;26.85;10.98;;;;;;;4.11;93.76;101639.09;5048834;28;20044;-61
2023/12/07 11:01:08;;;;;;;33.17;12.05;;;;;;;4.11;93.84;101636.50;5049235;28;20064;-61
2023/12/07 11:03:35;;;;;;;32.42;11.68;;;;;;;4.13;93.71;101636.63;5048968;28;20041;-61
2023/12/07 11:06:01;;;;;;;30.73;12.10;;;;;;;4.18;93.70;101637.91;5049572;28;20030;-60
2023/12/07 11:08:43;;;;;;;29.92;11.18;;;;;;;4.17;93.25;101631.75;5048872;28;20056;-60
2023/12/07 11:11:20;;;;;;;26.77;10.57;;;;;;;4.18;93.26;101637.91;5050712;28;20036;-61